Strona główna
METAR-TAF:

METAR-TAF

Lotnisko :

Pocono Mountains Municipal Airport

Mount Pocono, Pensylwania, Stany Zjednoczone

Szerokość geograficzna: 41-08-20N, Długość geograficzna: 075-23-46W, wysokość: 584 m

Aktualna obserwacja pogody

Raport powstał 51 minut temu, godzina 01:00 UTC
Wiatr 21 kt od północny zachód w porywach dochodzący do 31 kt
Temperatura -9°C
Wilgotność 62%
Ciśnienie 1018 hPa
Widzialność: 16.1 km
Przerywane chmury na wysokości 2800 ft

METAR: KMPO 240100Z AUTO 31021G31KT 10SM BKN028 M09/M15 A3006 RMK AO2 PK WND 32031/0100 T10891150 $

czas: 20:51 (01:51 UTC)


TAF: brakujący

Obserwacja i prognoza pogody dla ponad 4000 lotnisk (raport METAR i TAF).

Dostępne stacje oznaczono żółtymi i czerwonymi punktami na mapie.

Najedź kursorem aby zobaczyć nazwę stacji.

Kliknij aby zobaczyć obserwacje i prognozy pogody.

Aby zmienić mapę: kliknij na zielony przycisk z czarnym krzyżykiem, aby powiększyć; na zielony przycisk z myślnikiem, aby pomniejszyć; na zielone strzałki, aby przejść do map sąsiednich.


METAR-TAF: